sensor_id;sensor_type;location;lat;lon;timestamp;P1;durP1;ratioP1;P2;durP2;ratioP2
47539;SDS011;33280;52.152;21.052;2023-03-20T00:01:55;37.97;;;20.17;;
47539;SDS011;33280;52.152;21.052;2023-03-20T00:04:22;39.73;;;19.80;;
47539;SDS011;33280;52.152;21.052;2023-03-20T00:06:53;40.67;;;20.07;;
47539;SDS011;33280;52.152;21.052;2023-03-20T00:09:20;38.70;;;20.00;;
47539;SDS011;33280;52.152;21.052;2023-03-20T00:11:48;37.17;;;19.23;;
47539;SDS011;33280;52.152;21.052;2023-03-20T00:14:17;37.90;;;19.73;;
47539;SDS011;33280;52.152;21.052;2023-03-20T00:16:46;39.57;;;19.67;;
47539;SDS011;33280;52.152;21.052;2023-03-20T00:21:54;38.50;;;19.40;;
47539;SDS011;33280;52.152;21.052;2023-03-20T00:24:21;39.03;;;19.33;;
47539;SDS011;33280;52.152;21.052;2023-03-20T00:26:49;42.57;;;21.07;;
47539;SDS011;33280;52.152;21.052;2023-03-20T00:29:21;42.23;;;20.23;;
47539;SDS011;33280;52.152;21.052;2023-03-20T00:31:52;41.70;;;19.60;;
47539;SDS011;33280;52.152;21.052;2023-03-20T00:34:20;42.50;;;20.47;;
47539;SDS011;33280;52.152;21.052;2023-03-20T00:36:49;43.73;;;21.13;;
47539;SDS011;33280;52.152;21.052;2023-03-20T00:39:16;42.17;;;20.90;;
47539;SDS011;33280;52.152;21.052;2023-03-20T00:41:44;41.53;;;20.30;;
47539;SDS011;33280;52.152;21.052;2023-03-20T00:44:25;44.67;;;22.00;;
47539;SDS011;33280;52.152;21.052;2023-03-20T00:47:11;44.13;;;22.20;;
47539;SDS011;33280;52.152;21.052;2023-03-20T00:49:43;40.63;;;20.83;;
47539;SDS011;33280;52.152;21.052;2023-03-20T00:52:13;46.43;;;23.13;;
47539;SDS011;33280;52.152;21.052;2023-03-20T00:54:41;42.60;;;21.57;;
47539;SDS011;33280;52.152;21.052;2023-03-20T00:57:08;39.67;;;21.50;;
47539;SDS011;33280;52.152;21.052;2023-03-20T01:00:05;47.80;;;23.00;;
47539;SDS011;33280;52.152;21.052;2023-03-20T01:02:45;43.20;;;22.13;;
47539;SDS011;33280;52.152;21.052;2023-03-20T01:05:13;43.77;;;23.27;;
47539;SDS011;33280;52.152;21.052;2023-03-20T01:07:39;44.17;;;22.07;;
47539;SDS011;33280;52.152;21.052;2023-03-20T01:10:07;45.40;;;22.80;;
47539;SDS011;33280;52.152;21.052;2023-03-20T01:12:35;44.57;;;22.37;;
47539;SDS011;33280;52.152;21.052;2023-03-20T01:15:03;46.77;;;23.07;;
47539;SDS011;33280;52.152;21.052;2023-03-20T01:17:50;42.13;;;22.47;;
47539;SDS011;33280;52.152;21.052;2023-03-20T01:20:20;43.80;;;22.23;;
47539;SDS011;33280;52.152;21.052;2023-03-20T01:22:49;46.13;;;22.50;;
47539;SDS011;33280;52.152;21.052;2023-03-20T01:25:16;38.93;;;21.43;;
47539;SDS011;33280;52.152;21.052;2023-03-20T01:27:44;45.47;;;22.90;;
47539;SDS011;33280;52.152;21.052;2023-03-20T01:30:18;43.23;;;21.57;;
47539;SDS011;33280;52.152;21.052;2023-03-20T01:32:56;41.73;;;21.07;;
47539;SDS011;33280;52.152;21.052;2023-03-20T01:35:25;40.33;;;20.90;;
47539;SDS011;33280;52.152;21.052;2023-03-20T01:37:53;44.70;;;21.70;;
47539;SDS011;33280;52.152;21.052;2023-03-20T01:42:58;41.50;;;22.43;;
47539;SDS011;33280;52.152;21.052;2023-03-20T01:45:31;45.57;;;21.43;;
47539;SDS011;33280;52.152;21.052;2023-03-20T01:48:04;44.80;;;21.27;;
47539;SDS011;33280;52.152;21.052;2023-03-20T01:50:41;41.73;;;21.20;;
47539;SDS011;33280;52.152;21.052;2023-03-20T01:53:09;44.43;;;22.80;;
47539;SDS011;33280;52.152;21.052;2023-03-20T01:55:42;39.00;;;20.77;;
47539;SDS011;33280;52.152;21.052;2023-03-20T01:58:14;43.13;;;21.23;;
47539;SDS011;33280;52.152;21.052;2023-03-20T02:00:44;43.60;;;21.37;;
47539;SDS011;33280;52.152;21.052;2023-03-20T02:03:14;42.10;;;21.57;;
47539;SDS011;33280;52.152;21.052;2023-03-20T02:05:41;43.13;;;21.20;;
47539;SDS011;33280;52.152;21.052;2023-03-20T02:08:17;42.90;;;20.97;;
47539;SDS011;33280;52.152;21.052;2023-03-20T02:10:57;40.70;;;19.30;;
47539;SDS011;33280;52.152;21.052;2023-03-20T02:13:26;39.40;;;20.23;;
47539;SDS011;33280;52.152;21.052;2023-03-20T02:16:05;42.33;;;21.37;;
47539;SDS011;33280;52.152;21.052;2023-03-20T02:18:33;37.43;;;19.67;;
47539;SDS011;33280;52.152;21.052;2023-03-20T02:44:27;37.60;;;19.23;;
47539;SDS011;33280;52.152;21.052;2023-03-20T02:47:12;41.13;;;21.00;;
47539;SDS011;33280;52.152;21.052;2023-03-20T02:52:32;40.63;;;20.10;;
47539;SDS011;33280;52.152;21.052;2023-03-20T02:58:13;41.77;;;19.90;;
47539;SDS011;33280;52.152;21.052;2023-03-20T03:04:07;41.47;;;20.23;;
47539;SDS011;33280;52.152;21.052;2023-03-20T03:06:26;38.40;;;19.43;;
47539;SDS011;33280;52.152;21.052;2023-03-20T03:09:16;41.13;;;19.90;;
47539;SDS011;33280;52.152;21.052;2023-03-20T03:11:50;41.13;;;20.73;;
47539;SDS011;33280;52.152;21.052;2023-03-20T03:14:37;42.23;;;20.53;;
47539;SDS011;33280;52.152;21.052;2023-03-20T03:17:08;38.97;;;20.43;;
47539;SDS011;33280;52.152;21.052;2023-03-20T03:19:38;40.87;;;21.47;;
47539;SDS011;33280;52.152;21.052;2023-03-20T03:22:09;42.37;;;21.40;;
47539;SDS011;33280;52.152;21.052;2023-03-20T03:24:38;45.07;;;21.00;;
47539;SDS011;33280;52.152;21.052;2023-03-20T03:29:46;44.27;;;21.80;;
47539;SDS011;33280;52.152;21.052;2023-03-20T03:32:25;43.60;;;21.47;;
47539;SDS011;33280;52.152;21.052;2023-03-20T03:34:52;41.53;;;20.87;;
47539;SDS011;33280;52.152;21.052;2023-03-20T03:37:26;45.40;;;22.03;;
47539;SDS011;33280;52.152;21.052;2023-03-20T03:43:04;41.67;;;21.70;;
47539;SDS011;33280;52.152;21.052;2023-03-20T03:45:41;45.53;;;21.40;;
47539;SDS011;33280;52.152;21.052;2023-03-20T03:48:16;44.13;;;22.30;;
47539;SDS011;33280;52.152;21.052;2023-03-20T03:50:52;41.07;;;20.93;;
47539;SDS011;33280;52.152;21.052;2023-03-20T03:53:23;45.63;;;21.47;;
47539;SDS011;33280;52.152;21.052;2023-03-20T03:55:57;44.70;;;21.20;;
47539;SDS011;33280;52.152;21.052;2023-03-20T03:58:28;44.27;;;21.90;;
47539;SDS011;33280;52.152;21.052;2023-03-20T04:00:58;47.80;;;21.80;;
47539;SDS011;33280;52.152;21.052;2023-03-20T04:03:29;44.80;;;21.67;;
47539;SDS011;33280;52.152;21.052;2023-03-20T04:05:59;46.10;;;21.70;;
47539;SDS011;33280;52.152;21.052;2023-03-20T04:08:28;45.50;;;21.70;;
47539;SDS011;33280;52.152;21.052;2023-03-20T04:10:55;42.60;;;21.67;;
47539;SDS011;33280;52.152;21.052;2023-03-20T04:13:22;43.00;;;20.90;;
47539;SDS011;33280;52.152;21.052;2023-03-20T04:16:11;42.53;;;21.27;;
47539;SDS011;33280;52.152;21.052;2023-03-20T04:19:02;46.13;;;22.20;;
47539;SDS011;33280;52.152;21.052;2023-03-20T04:21:49;44.23;;;21.07;;
47539;SDS011;33280;52.152;21.052;2023-03-20T04:24:27;45.03;;;22.63;;
47539;SDS011;33280;52.152;21.052;2023-03-20T04:26:54;45.80;;;22.23;;
47539;SDS011;33280;52.152;21.052;2023-03-20T04:29:21;50.00;;;22.10;;
47539;SDS011;33280;52.152;21.052;2023-03-20T04:31:48;44.60;;;21.80;;
47539;SDS011;33280;52.152;21.052;2023-03-20T04:34:15;47.97;;;22.03;;
47539;SDS011;33280;52.152;21.052;2023-03-20T04:36:43;42.50;;;21.33;;
47539;SDS011;33280;52.152;21.052;2023-03-20T04:39:10;41.87;;;21.90;;
47539;SDS011;33280;52.152;21.052;2023-03-20T04:41:36;39.17;;;21.60;;
47539;SDS011;33280;52.152;21.052;2023-03-20T04:44:03;46.10;;;21.97;;
47539;SDS011;33280;52.152;21.052;2023-03-20T04:46:30;50.93;;;23.13;;
47539;SDS011;33280;52.152;21.052;2023-03-20T04:48:57;41.37;;;21.47;;
47539;SDS011;33280;52.152;21.052;2023-03-20T04:51:24;44.47;;;22.50;;
47539;SDS011;33280;52.152;21.052;2023-03-20T04:53:51;44.23;;;22.07;;
47539;SDS011;33280;52.152;21.052;2023-03-20T04:56:18;45.50;;;21.73;;
47539;SDS011;33280;52.152;21.052;2023-03-20T04:58:45;44.27;;;22.00;;
47539;SDS011;33280;52.152;21.052;2023-03-20T05:01:12;44.47;;;22.00;;
47539;SDS011;33280;52.152;21.052;2023-03-20T05:03:39;48.67;;;21.10;;
47539;SDS011;33280;52.152;21.052;2023-03-20T05:06:06;42.87;;;21.87;;
47539;SDS011;33280;52.152;21.052;2023-03-20T05:08:33;43.63;;;21.70;;
47539;SDS011;33280;52.152;21.052;2023-03-20T05:11:00;46.30;;;22.43;;
47539;SDS011;33280;52.152;21.052;2023-03-20T05:13:27;47.90;;;22.67;;
47539;SDS011;33280;52.152;21.052;2023-03-20T05:15:53;42.70;;;22.03;;
47539;SDS011;33280;52.152;21.052;2023-03-20T05:18:21;54.53;;;22.50;;
47539;SDS011;33280;52.152;21.052;2023-03-20T05:20:49;44.60;;;22.03;;
47539;SDS011;33280;52.152;21.052;2023-03-20T05:23:16;49.23;;;22.90;;
47539;SDS011;33280;52.152;21.052;2023-03-20T05:25:43;45.87;;;22.30;;
47539;SDS011;33280;52.152;21.052;2023-03-20T05:28:10;45.13;;;21.90;;
47539;SDS011;33280;52.152;21.052;2023-03-20T05:30:37;41.67;;;21.97;;
47539;SDS011;33280;52.152;21.052;2023-03-20T05:33:04;45.13;;;22.37;;
47539;SDS011;33280;52.152;21.052;2023-03-20T05:35:31;46.93;;;22.60;;
47539;SDS011;33280;52.152;21.052;2023-03-20T05:37:57;45.93;;;21.07;;
47539;SDS011;33280;52.152;21.052;2023-03-20T05:40:24;47.00;;;22.43;;
47539;SDS011;33280;52.152;21.052;2023-03-20T05:42:51;53.00;;;22.83;;
47539;SDS011;33280;52.152;21.052;2023-03-20T05:45:18;47.77;;;23.27;;
47539;SDS011;33280;52.152;21.052;2023-03-20T05:47:45;44.57;;;22.80;;
47539;SDS011;33280;52.152;21.052;2023-03-20T05:50:12;48.20;;;22.50;;
47539;SDS011;33280;52.152;21.052;2023-03-20T05:52:38;45.03;;;21.87;;
47539;SDS011;33280;52.152;21.052;2023-03-20T05:55:05;43.17;;;21.43;;
47539;SDS011;33280;52.152;21.052;2023-03-20T05:57:32;46.40;;;21.67;;
47539;SDS011;33280;52.152;21.052;2023-03-20T05:59:59;43.67;;;21.50;;
47539;SDS011;33280;52.152;21.052;2023-03-20T06:02:26;41.57;;;20.47;;
47539;SDS011;33280;52.152;21.052;2023-03-20T06:04:53;38.40;;;19.97;;
47539;SDS011;33280;52.152;21.052;2023-03-20T06:10:18;39.20;;;19.37;;
47539;SDS011;33280;52.152;21.052;2023-03-20T06:12:46;41.07;;;20.17;;
47539;SDS011;33280;52.152;21.052;2023-03-20T06:15:13;40.03;;;18.30;;
47539;SDS011;33280;52.152;21.052;2023-03-20T06:17:39;39.50;;;19.50;;
47539;SDS011;33280;52.152;21.052;2023-03-20T06:20:07;37.70;;;19.03;;
47539;SDS011;33280;52.152;21.052;2023-03-20T06:22:35;40.03;;;19.43;;
47539;SDS011;33280;52.152;21.052;2023-03-20T06:25:02;37.20;;;19.20;;
47539;SDS011;33280;52.152;21.052;2023-03-20T06:27:29;38.83;;;19.13;;
47539;SDS011;33280;52.152;21.052;2023-03-20T06:29:56;41.37;;;19.80;;
47539;SDS011;33280;52.152;21.052;2023-03-20T06:32:23;38.90;;;19.00;;
47539;SDS011;33280;52.152;21.052;2023-03-20T06:34:50;41.27;;;19.80;;
47539;SDS011;33280;52.152;21.052;2023-03-20T06:37:18;39.80;;;19.67;;
47539;SDS011;33280;52.152;21.052;2023-03-20T06:39:45;37.70;;;19.60;;
47539;SDS011;33280;52.152;21.052;2023-03-20T06:42:11;41.27;;;19.63;;
47539;SDS011;33280;52.152;21.052;2023-03-20T06:44:41;41.60;;;20.03;;
47539;SDS011;33280;52.152;21.052;2023-03-20T06:47:08;42.77;;;21.53;;
47539;SDS011;33280;52.152;21.052;2023-03-20T06:49:35;41.90;;;21.50;;
47539;SDS011;33280;52.152;21.052;2023-03-20T06:52:05;47.27;;;22.10;;
47539;SDS011;33280;52.152;21.052;2023-03-20T06:54:32;44.00;;;22.37;;
47539;SDS011;33280;52.152;21.052;2023-03-20T06:56:58;42.07;;;22.37;;
47539;SDS011;33280;52.152;21.052;2023-03-20T06:59:25;43.70;;;22.37;;
47539;SDS011;33280;52.152;21.052;2023-03-20T07:01:52;41.93;;;22.43;;
47539;SDS011;33280;52.152;21.052;2023-03-20T07:04:19;45.33;;;23.33;;
47539;SDS011;33280;52.152;21.052;2023-03-20T07:06:46;45.80;;;23.10;;
47539;SDS011;33280;52.152;21.052;2023-03-20T07:09:13;48.53;;;24.70;;
47539;SDS011;33280;52.152;21.052;2023-03-20T07:11:43;44.13;;;23.83;;
47539;SDS011;33280;52.152;21.052;2023-03-20T07:14:10;48.33;;;23.73;;
47539;SDS011;33280;52.152;21.052;2023-03-20T07:16:37;51.33;;;24.87;;
47539;SDS011;33280;52.152;21.052;2023-03-20T07:19:04;47.50;;;24.27;;
47539;SDS011;33280;52.152;21.052;2023-03-20T07:21:31;46.83;;;23.73;;
47539;SDS011;33280;52.152;21.052;2023-03-20T07:24:04;47.23;;;23.50;;
47539;SDS011;33280;52.152;21.052;2023-03-20T07:26:32;49.13;;;25.13;;
47539;SDS011;33280;52.152;21.052;2023-03-20T07:28:59;47.30;;;24.17;;
47539;SDS011;33280;52.152;21.052;2023-03-20T07:31:27;52.33;;;24.33;;
47539;SDS011;33280;52.152;21.052;2023-03-20T07:33:55;49.27;;;24.53;;
47539;SDS011;33280;52.152;21.052;2023-03-20T07:36:22;49.87;;;24.87;;
47539;SDS011;33280;52.152;21.052;2023-03-20T07:38:49;50.00;;;25.30;;
47539;SDS011;33280;52.152;21.052;2023-03-20T07:41:17;52.50;;;25.53;;
47539;SDS011;33280;52.152;21.052;2023-03-20T07:43:44;50.60;;;25.50;;
47539;SDS011;33280;52.152;21.052;2023-03-20T07:46:11;50.87;;;25.70;;
47539;SDS011;33280;52.152;21.052;2023-03-20T07:48:37;47.53;;;24.30;;
47539;SDS011;33280;52.152;21.052;2023-03-20T07:51:05;47.20;;;23.63;;
47539;SDS011;33280;52.152;21.052;2023-03-20T07:53:32;45.03;;;23.20;;
47539;SDS011;33280;52.152;21.052;2023-03-20T07:55:59;48.73;;;23.87;;
47539;SDS011;33280;52.152;21.052;2023-03-20T07:58:26;45.37;;;22.87;;
47539;SDS011;33280;52.152;21.052;2023-03-20T08:00:55;45.60;;;23.03;;
47539;SDS011;33280;52.152;21.052;2023-03-20T08:03:23;44.77;;;23.50;;
47539;SDS011;33280;52.152;21.052;2023-03-20T08:05:50;42.50;;;22.43;;
47539;SDS011;33280;52.152;21.052;2023-03-20T08:08:17;44.37;;;22.40;;
47539;SDS011;33280;52.152;21.052;2023-03-20T08:10:43;46.00;;;22.67;;
47539;SDS011;33280;52.152;21.052;2023-03-20T08:13:10;48.73;;;22.60;;
47539;SDS011;33280;52.152;21.052;2023-03-20T08:15:37;44.10;;;22.80;;
47539;SDS011;33280;52.152;21.052;2023-03-20T08:18:04;43.83;;;21.37;;
47539;SDS011;33280;52.152;21.052;2023-03-20T08:20:31;42.07;;;22.90;;
47539;SDS011;33280;52.152;21.052;2023-03-20T08:22:58;47.93;;;23.47;;
47539;SDS011;33280;52.152;21.052;2023-03-20T08:25:25;43.20;;;22.30;;
47539;SDS011;33280;52.152;21.052;2023-03-20T08:27:54;42.30;;;21.93;;
47539;SDS011;33280;52.152;21.052;2023-03-20T08:30:21;42.07;;;21.43;;
47539;SDS011;33280;52.152;21.052;2023-03-20T08:32:48;41.87;;;21.73;;
47539;SDS011;33280;52.152;21.052;2023-03-20T08:35:15;43.13;;;19.90;;
47539;SDS011;33280;52.152;21.052;2023-03-20T08:37:58;35.20;;;18.47;;
47539;SDS011;33280;52.152;21.052;2023-03-20T08:40:25;39.47;;;20.20;;
47539;SDS011;33280;52.152;21.052;2023-03-20T08:42:52;44.50;;;21.83;;
47539;SDS011;33280;52.152;21.052;2023-03-20T08:45:19;39.00;;;19.77;;
47539;SDS011;33280;52.152;21.052;2023-03-20T08:47:46;42.33;;;21.23;;
47539;SDS011;33280;52.152;21.052;2023-03-20T08:50:14;47.47;;;23.27;;
47539;SDS011;33280;52.152;21.052;2023-03-20T08:52:41;37.50;;;21.20;;
47539;SDS011;33280;52.152;21.052;2023-03-20T08:55:10;41.33;;;22.30;;
47539;SDS011;33280;52.152;21.052;2023-03-20T08:57:37;37.93;;;20.93;;
47539;SDS011;33280;52.152;21.052;2023-03-20T09:00:05;43.50;;;20.47;;
47539;SDS011;33280;52.152;21.052;2023-03-20T09:02:33;33.30;;;17.57;;
47539;SDS011;33280;52.152;21.052;2023-03-20T09:05:01;34.47;;;16.90;;
47539;SDS011;33280;52.152;21.052;2023-03-20T09:07:28;37.57;;;17.13;;
47539;SDS011;33280;52.152;21.052;2023-03-20T09:09:55;32.83;;;17.10;;
47539;SDS011;33280;52.152;21.052;2023-03-20T09:12:22;30.33;;;17.30;;
47539;SDS011;33280;52.152;21.052;2023-03-20T09:14:49;31.43;;;16.53;;
47539;SDS011;33280;52.152;21.052;2023-03-20T09:17:16;33.70;;;17.50;;
47539;SDS011;33280;52.152;21.052;2023-03-20T09:19:43;34.60;;;17.17;;
47539;SDS011;33280;52.152;21.052;2023-03-20T09:22:13;34.43;;;17.37;;
47539;SDS011;33280;52.152;21.052;2023-03-20T09:24:43;34.70;;;17.03;;
47539;SDS011;33280;52.152;21.052;2023-03-20T09:27:11;35.07;;;17.00;;
47539;SDS011;33280;52.152;21.052;2023-03-20T09:29:41;32.97;;;17.50;;
47539;SDS011;33280;52.152;21.052;2023-03-20T09:32:10;32.40;;;17.33;;
47539;SDS011;33280;52.152;21.052;2023-03-20T09:34:38;31.40;;;16.50;;
47539;SDS011;33280;52.152;21.052;2023-03-20T09:37:05;31.63;;;17.00;;
47539;SDS011;33280;52.152;21.052;2023-03-20T09:39:32;32.67;;;16.00;;
47539;SDS011;33280;52.152;21.052;2023-03-20T09:42:17;29.87;;;15.63;;
47539;SDS011;33280;52.152;21.052;2023-03-20T09:45:02;30.27;;;16.17;;
47539;SDS011;33280;52.152;21.052;2023-03-20T09:47:48;28.47;;;15.07;;
47539;SDS011;33280;52.152;21.052;2023-03-20T09:50:28;27.53;;;15.10;;
47539;SDS011;33280;52.152;21.052;2023-03-20T09:55:41;28.77;;;14.50;;
47539;SDS011;33280;52.152;21.052;2023-03-20T09:58:20;25.23;;;14.00;;
47539;SDS011;33280;52.152;21.052;2023-03-20T10:00:50;23.00;;;13.37;;
47539;SDS011;33280;52.152;21.052;2023-03-20T10:03:19;26.53;;;13.23;;
47539;SDS011;33280;52.152;21.052;2023-03-20T10:05:59;26.30;;;14.83;;
47539;SDS011;33280;52.152;21.052;2023-03-20T10:08:33;25.33;;;14.23;;
47539;SDS011;33280;52.152;21.052;2023-03-20T10:11:05;24.37;;;13.93;;
47539;SDS011;33280;52.152;21.052;2023-03-20T10:22:01;24.13;;;14.00;;
47539;SDS011;33280;52.152;21.052;2023-03-20T10:27:39;23.90;;;13.63;;
47539;SDS011;33280;52.152;21.052;2023-03-20T10:30:19;25.97;;;14.57;;
47539;SDS011;33280;52.152;21.052;2023-03-20T10:38:47;25.50;;;13.50;;
47539;SDS011;33280;52.152;21.052;2023-03-20T10:41:31;29.00;;;14.27;;
47539;SDS011;33280;52.152;21.052;2023-03-20T10:44:01;26.47;;;14.53;;
47539;SDS011;33280;52.152;21.052;2023-03-20T10:46:49;29.13;;;15.20;;
47539;SDS011;33280;52.152;21.052;2023-03-20T10:49:19;29.23;;;16.07;;
47539;SDS011;33280;52.152;21.052;2023-03-20T10:52:02;31.87;;;16.07;;
47539;SDS011;33280;52.152;21.052;2023-03-20T10:54:36;31.00;;;16.07;;
47539;SDS011;33280;52.152;21.052;2023-03-20T10:57:14;33.97;;;16.30;;
47539;SDS011;33280;52.152;21.052;2023-03-20T10:59:48;34.80;;;18.57;;
47539;SDS011;33280;52.152;21.052;2023-03-20T11:02:18;39.13;;;18.70;;
47539;SDS011;33280;52.152;21.052;2023-03-20T11:04:47;37.30;;;18.37;;
47539;SDS011;33280;52.152;21.052;2023-03-20T11:07:18;34.77;;;18.10;;
47539;SDS011;33280;52.152;21.052;2023-03-20T11:12:31;39.10;;;20.40;;
47539;SDS011;33280;52.152;21.052;2023-03-20T11:15:01;39.73;;;20.87;;
47539;SDS011;33280;52.152;21.052;2023-03-20T11:17:37;44.43;;;21.10;;
47539;SDS011;33280;52.152;21.052;2023-03-20T11:20:04;41.53;;;22.13;;
47539;SDS011;33280;52.152;21.052;2023-03-20T11:22:32;44.30;;;21.80;;
47539;SDS011;33280;52.152;21.052;2023-03-20T11:25:00;46.43;;;22.23;;
47539;SDS011;33280;52.152;21.052;2023-03-20T11:27:31;46.37;;;23.33;;
47539;SDS011;33280;52.152;21.052;2023-03-20T11:30:03;41.30;;;22.30;;
47539;SDS011;33280;52.152;21.052;2023-03-20T11:32:33;40.90;;;21.70;;
47539;SDS011;33280;52.152;21.052;2023-03-20T11:37:44;41.43;;;21.60;;
47539;SDS011;33280;52.152;21.052;2023-03-20T11:40:24;39.37;;;21.47;;
47539;SDS011;33280;52.152;21.052;2023-03-20T11:43:09;41.63;;;20.97;;
47539;SDS011;33280;52.152;21.052;2023-03-20T11:45:38;40.20;;;20.50;;
47539;SDS011;33280;52.152;21.052;2023-03-20T11:48:17;40.63;;;20.27;;
47539;SDS011;33280;52.152;21.052;2023-03-20T11:50:50;37.07;;;18.60;;
47539;SDS011;33280;52.152;21.052;2023-03-20T11:53:36;33.87;;;18.03;;
47539;SDS011;33280;52.152;21.052;2023-03-20T11:56:20;34.87;;;18.00;;
47539;SDS011;33280;52.152;21.052;2023-03-20T11:59:12;32.93;;;17.40;;
47539;SDS011;33280;52.152;21.052;2023-03-20T12:01:44;31.97;;;17.03;;
47539;SDS011;33280;52.152;21.052;2023-03-20T12:04:15;33.27;;;17.80;;
47539;SDS011;33280;52.152;21.052;2023-03-20T12:15:24;40.80;;;20.87;;
47539;SDS011;33280;52.152;21.052;2023-03-20T12:26:09;39.03;;;20.87;;
47539;SDS011;33280;52.152;21.052;2023-03-20T12:34:14;37.17;;;19.17;;
47539;SDS011;33280;52.152;21.052;2023-03-20T12:36:46;38.77;;;18.87;;
47539;SDS011;33280;52.152;21.052;2023-03-20T12:39:17;35.97;;;18.73;;
47539;SDS011;33280;52.152;21.052;2023-03-20T12:42:01;37.67;;;19.43;;
47539;SDS011;33280;52.152;21.052;2023-03-20T12:44:37;35.20;;;19.57;;
47539;SDS011;33280;52.152;21.052;2023-03-20T12:52:33;32.77;;;17.37;;
47539;SDS011;33280;52.152;21.052;2023-03-20T12:55:21;32.50;;;17.07;;
47539;SDS011;33280;52.152;21.052;2023-03-20T12:58:02;34.10;;;18.23;;
47539;SDS011;33280;52.152;21.052;2023-03-20T13:01:04;35.63;;;17.73;;
47539;SDS011;33280;52.152;21.052;2023-03-20T13:25:46;28.50;;;14.30;;
47539;SDS011;33280;52.152;21.052;2023-03-20T13:31:17;28.73;;;13.77;;
47539;SDS011;33280;52.152;21.052;2023-03-20T13:33:49;23.07;;;13.27;;
47539;SDS011;33280;52.152;21.052;2023-03-20T13:48:15;38.57;;;21.47;;
47539;SDS011;33280;52.152;21.052;2023-03-20T13:59:00;41.40;;;23.47;;
47539;SDS011;33280;52.152;21.052;2023-03-20T14:01:49;41.73;;;23.97;;
47539;SDS011;33280;52.152;21.052;2023-03-20T14:04:33;39.87;;;23.57;;
47539;SDS011;33280;52.152;21.052;2023-03-20T14:07:24;40.97;;;23.60;;
47539;SDS011;33280;52.152;21.052;2023-03-20T14:09:52;40.90;;;24.30;;
47539;SDS011;33280;52.152;21.052;2023-03-20T14:12:23;38.07;;;22.83;;
47539;SDS011;33280;52.152;21.052;2023-03-20T14:14:52;40.87;;;23.37;;
47539;SDS011;33280;52.152;21.052;2023-03-20T14:19:54;40.37;;;22.23;;
47539;SDS011;33280;52.152;21.052;2023-03-20T14:22:29;37.93;;;23.20;;
47539;SDS011;33280;52.152;21.052;2023-03-20T14:25:05;37.67;;;22.47;;
47539;SDS011;33280;52.152;21.052;2023-03-20T14:27:52;35.33;;;20.97;;
47539;SDS011;33280;52.152;21.052;2023-03-20T14:30:36;34.73;;;21.23;;
47539;SDS011;33280;52.152;21.052;2023-03-20T14:35:44;35.23;;;20.70;;
47539;SDS011;33280;52.152;21.052;2023-03-20T14:41:18;33.60;;;20.30;;
47539;SDS011;33280;52.152;21.052;2023-03-20T14:49:18;30.33;;;18.93;;
47539;SDS011;33280;52.152;21.052;2023-03-20T14:56:05;34.93;;;20.10;;
47539;SDS011;33280;52.152;21.052;2023-03-20T15:01:13;38.53;;;21.80;;
47539;SDS011;33280;52.152;21.052;2023-03-20T15:03:48;39.17;;;22.57;;
47539;SDS011;33280;52.152;21.052;2023-03-20T15:06:21;37.83;;;23.27;;
47539;SDS011;33280;52.152;21.052;2023-03-20T15:08:53;40.17;;;23.27;;
47539;SDS011;33280;52.152;21.052;2023-03-20T15:11:24;41.00;;;24.03;;
47539;SDS011;33280;52.152;21.052;2023-03-20T15:13:51;41.10;;;24.00;;
47539;SDS011;33280;52.152;21.052;2023-03-20T15:16:30;40.70;;;24.27;;
47539;SDS011;33280;52.152;21.052;2023-03-20T15:19:08;41.93;;;25.17;;
47539;SDS011;33280;52.152;21.052;2023-03-20T15:21:43;35.93;;;22.47;;
47539;SDS011;33280;52.152;21.052;2023-03-20T15:24:24;38.13;;;21.30;;
47539;SDS011;33280;52.152;21.052;2023-03-20T15:26:54;35.23;;;20.30;;
47539;SDS011;33280;52.152;21.052;2023-03-20T15:29:24;34.60;;;20.47;;
47539;SDS011;33280;52.152;21.052;2023-03-20T15:31:55;33.77;;;19.77;;
47539;SDS011;33280;52.152;21.052;2023-03-20T15:34:38;28.83;;;18.60;;
47539;SDS011;33280;52.152;21.052;2023-03-20T15:37:08;27.50;;;17.20;;
47539;SDS011;33280;52.152;21.052;2023-03-20T15:39:43;29.20;;;16.83;;
47539;SDS011;33280;52.152;21.052;2023-03-20T15:42:15;25.53;;;14.87;;
47539;SDS011;33280;52.152;21.052;2023-03-20T15:44:46;23.57;;;13.53;;
47539;SDS011;33280;52.152;21.052;2023-03-20T15:47:15;19.30;;;12.10;;
47539;SDS011;33280;52.152;21.052;2023-03-20T15:50:10;20.43;;;12.40;;
47539;SDS011;33280;52.152;21.052;2023-03-20T15:52:40;25.07;;;14.23;;
47539;SDS011;33280;52.152;21.052;2023-03-20T15:55:11;26.10;;;14.70;;
47539;SDS011;33280;52.152;21.052;2023-03-20T15:57:43;26.07;;;15.67;;
47539;SDS011;33280;52.152;21.052;2023-03-20T16:00:16;25.77;;;15.77;;
47539;SDS011;33280;52.152;21.052;2023-03-20T16:02:49;22.93;;;14.17;;
47539;SDS011;33280;52.152;21.052;2023-03-20T16:05:17;24.13;;;14.57;;
47539;SDS011;33280;52.152;21.052;2023-03-20T16:07:47;22.97;;;13.97;;
47539;SDS011;33280;52.152;21.052;2023-03-20T16:10:24;21.23;;;13.73;;
47539;SDS011;33280;52.152;21.052;2023-03-20T16:12:56;21.23;;;13.13;;
47539;SDS011;33280;52.152;21.052;2023-03-20T16:15:24;25.03;;;14.17;;
47539;SDS011;33280;52.152;21.052;2023-03-20T16:17:57;21.17;;;13.33;;
47539;SDS011;33280;52.152;21.052;2023-03-20T16:20:32;22.63;;;14.00;;
47539;SDS011;33280;52.152;21.052;2023-03-20T16:23:04;22.93;;;14.30;;
47539;SDS011;33280;52.152;21.052;2023-03-20T16:25:34;26.20;;;14.50;;
47539;SDS011;33280;52.152;21.052;2023-03-20T16:28:10;23.63;;;13.70;;
47539;SDS011;33280;52.152;21.052;2023-03-20T16:30:43;23.93;;;13.87;;
47539;SDS011;33280;52.152;21.052;2023-03-20T16:33:12;25.23;;;14.47;;
47539;SDS011;33280;52.152;21.052;2023-03-20T16:35:46;24.30;;;15.40;;
47539;SDS011;33280;52.152;21.052;2023-03-20T16:38:20;25.67;;;14.70;;
47539;SDS011;33280;52.152;21.052;2023-03-20T16:41:12;27.20;;;15.13;;
47539;SDS011;33280;52.152;21.052;2023-03-20T16:43:44;24.67;;;14.77;;
47539;SDS011;33280;52.152;21.052;2023-03-20T16:46:22;24.90;;;14.83;;
47539;SDS011;33280;52.152;21.052;2023-03-20T16:49:01;23.33;;;14.63;;
47539;SDS011;33280;52.152;21.052;2023-03-20T16:52:02;25.77;;;14.97;;
47539;SDS011;33280;52.152;21.052;2023-03-20T16:54:35;29.73;;;15.33;;
47539;SDS011;33280;52.152;21.052;2023-03-20T16:57:09;25.33;;;15.37;;
47539;SDS011;33280;52.152;21.052;2023-03-20T16:59:42;23.07;;;14.70;;
47539;SDS011;33280;52.152;21.052;2023-03-20T17:02:11;24.60;;;15.27;;
47539;SDS011;33280;52.152;21.052;2023-03-20T17:05:01;26.70;;;15.63;;
47539;SDS011;33280;52.152;21.052;2023-03-20T17:07:30;25.07;;;15.53;;
47539;SDS011;33280;52.152;21.052;2023-03-20T17:10:09;26.60;;;15.77;;
47539;SDS011;33280;52.152;21.052;2023-03-20T17:12:44;24.57;;;15.00;;
47539;SDS011;33280;52.152;21.052;2023-03-20T17:15:13;24.80;;;15.50;;
47539;SDS011;33280;52.152;21.052;2023-03-20T17:17:54;27.73;;;16.17;;
47539;SDS011;33280;52.152;21.052;2023-03-20T17:20:22;29.17;;;16.70;;